Time;durP1;ratioP1;P1;durP2;ratioP2;P2;SDS_P1;SDS_P2;PMS_P1;PMS_P2;Temp;Humidity;BMP_temperature;BMP_pressure;BME280_temperature;BME280_humidity;BME280_pressure;Samples;Min_cycle;Max_cycle;Signal;HPM_P1;HPM_P2
2021/01/06 00:04:07;;;;;;;8.02;7.15;;;;;;;;;;10483805;27;20043;-63
2021/01/06 00:09:05;;;;;;;7.93;7.00;;;;;;;;;;10483819;27;20070;-61
2021/01/06 00:14:05;;;;;;;7.72;6.93;;;;;;;;;;10483019;27;20054;-62
2021/01/06 00:19:03;;;;;;;7.35;6.45;;;;;;;;;;10481376;27;20046;-62
2021/01/06 00:24:01;;;;;;;6.82;6.05;;;;;;;;;;10479306;27;20063;-62
2021/01/06 00:28:59;;;;;;;5.93;5.32;;;;;;;;;;10480566;27;20335;-62
2021/01/06 00:33:56;;;;;;;10.55;6.22;;;;;;;;;;10483090;27;20038;-62
2021/01/06 00:38:54;;;;;;;7.35;6.65;;;;;;;;;;10481861;27;20050;-63
2021/01/06 00:43:52;;;;;;;8.05;6.90;;;;;;;;;;10482584;27;20046;-63
2021/01/06 00:48:50;;;;;;;8.98;7.25;;;;;;;;;;10481591;27;20054;-61
2021/01/06 00:53:48;;;;;;;7.75;6.60;;;;;;;;;;10463485;27;20058;-62
2021/01/06 00:58:45;;;;;;;8.18;6.65;;;;;;;;;;10482124;27;20039;-63
2021/01/06 01:03:47;;;;;;;6.78;6.07;;;;;;;;;;10463540;27;20050;-62
2021/01/06 01:08:44;;;;;;;6.80;6.10;;;;;;;;;;10489133;27;20419;-62
2021/01/06 01:13:42;;;;;;;8.65;6.65;;;;;;;;;;10490954;27;20069;-63
2021/01/06 01:18:39;;;;;;;9.60;6.80;;;;;;;;;;10491089;27;20039;-62
2021/01/06 01:23:37;;;;;;;9.05;6.85;;;;;;;;;;10490431;27;20316;-63
2021/01/06 01:28:34;;;;;;;8.38;6.57;;;;;;;;;;10490069;27;20050;-61
2021/01/06 01:33:32;;;;;;;8.80;6.20;;;;;;;;;;10489179;27;20074;-63
2021/01/06 01:38:30;;;;;;;8.02;6.80;;;;;;;;;;10490024;27;20038;-61
2021/01/06 01:43:28;;;;;;;8.02;6.88;;;;;;;;;;10489135;27;20055;-62
2021/01/06 01:48:28;;;;;;;9.63;7.53;;;;;;;;;;10489292;27;20042;-62
2021/01/06 01:53:28;;;;;;;7.53;6.30;;;;;;;;;;10488170;27;20074;-61
2021/01/06 01:58:27;;;;;;;8.70;6.30;;;;;;;;;;10488443;27;20038;-62
2021/01/06 02:03:28;;;;;;;7.90;6.00;;;;;;;;;;10488676;27;20070;-62
2021/01/06 02:08:28;;;;;;;7.13;5.78;;;;;;;;;;10488210;27;20078;-62
2021/01/06 02:13:30;;;;;;;7.38;6.13;;;;;;;;;;10488146;27;20508;-62
2021/01/06 02:18:28;;;;;;;8.30;6.22;;;;;;;;;;10487789;27;20038;-62
2021/01/06 02:23:27;;;;;;;59.30;31.75;;;;;;;;;;10487314;27;20073;-62
2021/01/06 02:28:24;;;;;;;8.30;6.97;;;;;;;;;;10487960;27;20046;-63
2021/01/06 02:33:21;;;;;;;11.68;6.68;;;;;;;;;;10486767;27;20078;-63
2021/01/06 02:38:19;;;;;;;6.80;5.72;;;;;;;;;;10487554;27;20530;-63
2021/01/06 02:43:17;;;;;;;12.18;6.82;;;;;;;;;;10486195;27;20054;-63
2021/01/06 02:48:14;;;;;;;7.68;6.63;;;;;;;;;;10486679;27;20042;-63
2021/01/06 02:53:15;;;;;;;8.77;6.63;;;;;;;;;;10486032;27;20080;-62
2021/01/06 02:58:14;;;;;;;6.57;5.85;;;;;;;;;;10486235;27;20498;-63
2021/01/06 03:03:13;;;;;;;36.90;20.15;;;;;;;;;;10486665;27;20079;-63
2021/01/06 03:08:16;;;;;;;7.63;6.75;;;;;;;;;;10484769;27;20047;-62
2021/01/06 03:13:13;;;;;;;8.38;6.88;;;;;;;;;;10485459;27;20074;-63
2021/01/06 03:18:10;;;;;;;8.50;5.75;;;;;;;;;;10485425;27;20070;-62
2021/01/06 03:23:10;;;;;;;13.23;6.88;;;;;;;;;;10485244;27;20182;-62
2021/01/06 03:28:09;;;;;;;7.43;6.63;;;;;;;;;;10483896;27;20050;-63
2021/01/06 03:33:10;;;;;;;7.72;6.35;;;;;;;;;;10484771;27;20070;-62
2021/01/06 03:38:13;;;;;;;6.72;5.88;;;;;;;;;;10465862;27;20440;-62
2021/01/06 03:43:11;;;;;;;6.82;6.13;;;;;;;;;;10483788;27;20054;-62
2021/01/06 03:48:13;;;;;;;7.88;6.72;;;;;;;;;;10483994;27;20554;-62
2021/01/06 03:53:18;;;;;;;7.57;6.78;;;;;;;;;;10484224;27;20073;-62
2021/01/06 03:58:15;;;;;;;;;;;;;;;;;;10484581;27;20047;-62
2021/01/06 04:03:19;;;;;;;6.13;5.53;;;;;;;;;;10483669;27;20348;-62
2021/01/06 04:08:32;;;;;;;9.40;5.50;;;;;;;;;;10483563;27;20062;-62
2021/01/06 04:13:30;;;;;;;6.38;5.75;;;;;;;;;;10482544;27;20071;-62
2021/01/06 04:18:27;;;;;;;7.82;6.57;;;;;;;;;;10483742;27;20031;-62
2021/01/06 04:23:25;;;;;;;7.15;5.57;;;;;;;;;;10482914;27;20047;-62
2021/01/06 04:28:23;;;;;;;7.10;6.13;;;;;;;;;;10483181;27;20066;-63
2021/01/06 04:33:22;;;;;;;8.13;6.82;;;;;;;;;;10482912;27;20515;-62
2021/01/06 04:38:20;;;;;;;6.90;5.97;;;;;;;;;;10480673;27;20507;-62
2021/01/06 04:43:23;;;;;;;7.53;5.78;;;;;;;;;;10481022;27;20058;-63
2021/01/06 04:48:31;;;;;;;7.18;6.47;;;;;;;;;;10482918;27;20423;-63
2021/01/06 04:53:34;;;;;;;54.10;32.15;;;;;;;;;;10482189;27;20065;-64
2021/01/06 04:58:38;;;;;;;112.03;61.25;;;;;;;;;;10481731;27;20047;-63
2021/01/06 05:03:40;;;;;;;83.25;43.90;;;;;;;;;;10481839;27;20522;-62
2021/01/06 05:08:39;;;;;;;78.70;43.35;;;;;;;;;;10482365;27;20043;-62
2021/01/06 05:13:40;;;;;;;58.60;38.03;;;;;;;;;;10481503;27;20503;-62
2021/01/06 05:18:39;;;;;;;14.57;10.05;;;;;;;;;;10482261;27;20073;-62
2021/01/06 05:23:39;;;;;;;12.70;7.88;;;;;;;;;;10482178;27;20043;-62
2021/01/06 05:28:36;;;;;;;7.68;5.53;;;;;;;;;;10480827;27;20046;-61
2021/01/06 05:33:36;;;;;;;11.75;7.25;;;;;;;;;;10481665;27;20070;-62
2021/01/06 05:38:33;;;;;;;77.70;50.55;;;;;;;;;;10479630;27;20085;-61
2021/01/06 05:43:43;;;;;;;81.53;46.90;;;;;;;;;;10478004;27;20049;-62
2021/01/06 05:48:46;;;;;;;55.00;35.45;;;;;;;;;;10479017;27;20073;-62
2021/01/06 05:53:45;;;;;;;73.72;41.58;;;;;;;;;;10484143;27;20046;-62
2021/01/06 05:58:47;;;;;;;39.25;19.90;;;;;;;;;;10487430;27;20046;-61
2021/01/06 06:04:05;;;;;;;10.40;5.88;;;;;;;;;;10487527;27;20054;-62
2021/01/06 06:09:04;;;;;;;16.55;8.93;;;;;;;;;;10488897;27;20047;-62
2021/01/06 06:14:11;;;;;;;12.30;7.30;;;;;;;;;;10488575;27;20108;-62
2021/01/06 06:19:19;;;;;;;13.95;7.03;;;;;;;;;;10488381;27;20451;-62
2021/01/06 06:24:30;;;;;;;14.75;8.25;;;;;;;;;;10486969;27;20038;-63
2021/01/06 06:29:29;;;;;;;30.63;23.52;;;;;;;;;;10488034;27;20062;-62
2021/01/06 06:34:29;;;;;;;79.68;57.08;;;;;;;;;;10487955;27;20066;-61
2021/01/06 06:39:29;;;;;;;82.60;55.60;;;;;;;;;;10487178;27;20046;-62
2021/01/06 06:44:29;;;;;;;54.78;39.90;;;;;;;;;;10487199;27;20420;-64
2021/01/06 06:49:32;;;;;;;112.68;91.32;;;;;;;;;;10487209;27;20046;-61
2021/01/06 06:54:38;;;;;;;74.57;49.50;;;;;;;;;;10487206;27;20070;-62
2021/01/06 06:59:49;;;;;;;53.60;35.13;;;;;;;;;;10486201;27;20050;-62
2021/01/06 07:04:49;;;;;;;119.18;81.30;;;;;;;;;;10484873;27;20069;-62
2021/01/06 07:09:50;;;;;;;132.10;92.07;;;;;;;;;;10486022;27;20514;-62
2021/01/06 07:14:49;;;;;;;117.95;77.28;;;;;;;;;;10486177;27;20522;-62
2021/01/06 07:19:59;;;;;;;88.82;57.33;;;;;;;;;;10484914;27;20047;-63
2021/01/06 07:25:01;;;;;;;82.95;50.75;;;;;;;;;;10485698;27;20035;-62
2021/01/06 07:29:58;;;;;;;94.53;53.83;;;;;;;;;;10485120;27;20408;-62
2021/01/06 07:34:58;;;;;;;113.43;73.38;;;;;;;;;;10485380;27;20051;-62
2021/01/06 07:39:57;;;;;;;96.63;62.95;;;;;;;;;;10484576;27;20407;-63
2021/01/06 07:45:08;;;;;;;83.05;50.42;;;;;;;;;;10484855;27;20054;-63
2021/01/06 07:50:09;;;;;;;80.75;54.83;;;;;;;;;;10484952;27;20079;-62
2021/01/06 07:55:16;;;;;;;78.45;54.65;;;;;;;;;;10483865;27;20133;-63
2021/01/06 08:00:14;;;;;;;89.75;53.88;;;;;;;;;;10484108;27;20057;-62
2021/01/06 08:05:24;;;;;;;139.80;78.80;;;;;;;;;;10483608;27;20505;-63
2021/01/06 08:10:27;;;;;;;193.00;138.32;;;;;;;;;;10483385;27;20047;-62
2021/01/06 08:15:29;;;;;;;187.40;107.78;;;;;;;;;;10483916;27;20074;-62
2021/01/06 08:20:28;;;;;;;158.70;89.65;;;;;;;;;;10483080;27;20046;-63
2021/01/06 08:25:28;;;;;;;155.23;90.82;;;;;;;;;;10483361;27;20415;-62
2021/01/06 08:30:26;;;;;;;91.18;57.75;;;;;;;;;;10483478;27;20049;-62
2021/01/06 08:35:30;;;;;;;75.78;48.33;;;;;;;;;;10483422;27;20031;-62
2021/01/06 08:40:38;;;;;;;79.38;55.70;;;;;;;;;;10483124;27;20034;-64
2021/01/06 08:45:35;;;;;;;110.63;71.07;;;;;;;;;;10482702;27;20051;-63
2021/01/06 08:50:35;;;;;;;107.60;65.03;;;;;;;;;;10463097;27;20042;-62
2021/01/06 08:55:34;;;;;;;118.30;73.88;;;;;;;;;;10482280;27;20043;-63
2021/01/06 09:00:33;;;;;;;74.57;48.45;;;;;;;;;;10482287;27;20070;-62
2021/01/06 09:05:46;;;;;;;142.20;90.32;;;;;;;;;;10481870;27;20050;-62
2021/01/06 09:10:54;;;;;;;127.97;86.30;;;;;;;;;;10482620;27;20484;-62
2021/01/06 09:15:54;;;;;;;120.85;81.18;;;;;;;;;;10481630;27;20411;-62
2021/01/06 09:21:01;;;;;;;110.90;73.82;;;;;;;;;;10482136;27;20930;-62
2021/01/06 09:25:59;;;;;;;109.75;71.60;;;;;;;;;;10481814;27;20050;-63
2021/01/06 09:30:56;;;;;;;109.80;73.82;;;;;;;;;;10489569;27;20074;-62
2021/01/06 09:35:54;;;;;;;122.00;82.45;;;;;;;;;;10489137;27;20487;-63
2021/01/06 09:40:52;;;;;;;55.88;34.00;;;;;;;;;;10490030;27;20527;-62
2021/01/06 09:45:50;;;;;;;22.13;16.58;;;;;;;;;;10489286;27;20046;-62
2021/01/06 09:50:49;;;;;;;128.50;72.55;;;;;;;;;;10490106;27;20034;-63
2021/01/06 09:55:47;;;;;;;114.90;63.40;;;;;;;;;;10489872;27;20035;-62
2021/01/06 10:00:48;;;;;;;107.38;65.68;;;;;;;;;;10488478;27;20042;-62
2021/01/06 10:05:51;;;;;;;121.70;71.03;;;;;;;;;;10488735;27;20105;-63
2021/01/06 10:10:49;;;;;;;118.53;73.63;;;;;;;;;;10488237;27;20043;-63
2021/01/06 10:15:58;;;;;;;123.50;64.32;;;;;;;;;;10488501;27;20054;-63
2021/01/06 10:20:59;;;;;;;110.03;75.47;;;;;;;;;;10489045;27;20039;-61
2021/01/06 10:25:59;;;;;;;98.88;74.43;;;;;;;;;;10488477;27;20045;-62
2021/01/06 10:31:03;;;;;;;10.00;8.75;;;;;;;;;;10488260;27;20070;-62
2021/01/06 10:36:05;;;;;;;12.32;8.07;;;;;;;;;;10488217;27;20077;-62
2021/01/06 10:41:20;;;;;;;20.25;13.55;;;;;;;;;;10487359;27;20066;-61
2021/01/06 10:46:38;;;;;;;47.37;31.77;;;;;;;;;;10488138;27;20042;-61
2021/01/06 10:52:03;;;;;;;69.60;40.33;;;;;;;;;;10487569;27;20495;-61
2021/01/06 10:57:00;;;;;;;64.03;41.63;;;;;;;;;;10438064;27;20050;-61
2021/01/06 11:02:08;;;;;;;56.35;43.55;;;;;;;;;;10486446;27;20058;-61
2021/01/06 11:07:15;;;;;;;14.73;11.07;;;;;;;;;;10485832;27;20046;-62
2021/01/06 11:12:19;;;;;;;11.55;6.78;;;;;;;;;;10485076;27;20085;-62
2021/01/06 11:17:33;;;;;;;43.73;30.60;;;;;;;;;;10485337;27;20082;-61
2021/01/06 11:22:33;;;;;;;80.18;41.05;;;;;;;;;;10484575;27;20061;-61
2021/01/06 11:27:33;;;;;;;62.00;38.75;;;;;;;;;;10485184;27;20042;-62
2021/01/06 11:32:38;;;;;;;30.30;19.13;;;;;;;;;;10484674;27;20082;-62
2021/01/06 11:37:37;;;;;;;;;;;;;;;;;;10485253;27;20041;-62
2021/01/06 11:42:45;;;;;;;26.63;19.10;;;;;;;;;;10484899;27;19923;-62
2021/01/06 11:47:48;;;;;;;16.58;10.70;;;;;;;;;;10483800;27;20047;-62
2021/01/06 11:52:47;;;;;;;20.25;13.88;;;;;;;;;;10483709;27;20093;-62
2021/01/06 11:57:48;;;;;;;42.10;23.75;;;;;;;;;;10484238;27;20105;-62
2021/01/06 12:02:56;;;;;;;7.07;6.35;;;;;;;;;;10484089;27;20038;-62
2021/01/06 12:08:09;;;;;;;24.42;13.88;;;;;;;;;;10483850;27;20047;-61
2021/01/06 12:13:18;;;;;;;45.63;31.40;;;;;;;;;;10482433;27;20074;-62
2021/01/06 12:18:36;;;;;;;50.83;28.88;;;;;;;;;;10483477;27;20046;-62
2021/01/06 12:23:38;;;;;;;55.13;32.33;;;;;;;;;;10482543;27;20043;-64
2021/01/06 12:28:42;;;;;;;64.53;43.25;;;;;;;;;;10482220;27;20049;-63
2021/01/06 12:33:44;;;;;;;52.05;31.33;;;;;;;;;;10482683;27;20474;-63
2021/01/06 12:38:43;;;;;;;37.17;22.20;;;;;;;;;;10482393;27;20492;-62
2021/01/06 12:43:41;;;;;;;36.83;22.13;;;;;;;;;;10482223;27;20101;-62
2021/01/06 12:48:49;;;;;;;37.15;26.58;;;;;;;;;;10482472;27;20030;-61
2021/01/06 12:53:54;;;;;;;44.53;27.45;;;;;;;;;;10482607;27;20066;-62
2021/01/06 12:59:01;;;;;;;26.92;16.02;;;;;;;;;;10482521;27;20047;-62
2021/01/06 13:04:04;;;;;;;33.13;21.58;;;;;;;;;;10487990;27;20097;-62
2021/01/06 13:09:08;;;;;;;19.58;15.15;;;;;;;;;;10491231;27;20479;-62
2021/01/06 13:14:13;;;;;;;35.08;20.70;;;;;;;;;;10490103;27;20078;-63
2021/01/06 13:19:23;;;;;;;31.88;19.15;;;;;;;;;;10490864;27;20404;-63
2021/01/06 13:24:21;;;;;;;32.42;22.67;;;;;;;;;;10490166;27;20043;-63
2021/01/06 13:29:30;;;;;;;29.10;21.25;;;;;;;;;;10490368;27;20039;-64
2021/01/06 13:34:30;;;;;;;26.48;20.00;;;;;;;;;;10490039;27;20053;-62
2021/01/06 13:39:30;;;;;;;23.42;17.23;;;;;;;;;;10489560;27;20050;-62
2021/01/06 13:44:33;;;;;;;22.10;15.40;;;;;;;;;;10489175;27;20050;-61
2021/01/06 13:49:35;;;;;;;30.60;18.77;;;;;;;;;;10489238;27;20070;-63
2021/01/06 13:54:42;;;;;;;33.28;19.67;;;;;;;;;;10489019;27;20066;-63
2021/01/06 13:59:43;;;;;;;25.35;17.58;;;;;;;;;;10489092;27;20491;-62
2021/01/06 14:04:47;;;;;;;23.42;16.92;;;;;;;;;;10488205;27;20062;-62
2021/01/06 14:09:54;;;;;;;29.13;20.63;;;;;;;;;;10488863;27;20073;-63
2021/01/06 14:14:55;;;;;;;20.13;15.70;;;;;;;;;;10487506;27;20082;-63
2021/01/06 14:19:56;;;;;;;20.85;17.10;;;;;;;;;;10488843;27;20078;-62
2021/01/06 14:24:54;;;;;;;19.95;16.27;;;;;;;;;;10488450;27;20046;-63
2021/01/06 14:30:00;;;;;;;26.67;19.20;;;;;;;;;;10487173;27;20492;-63
2021/01/06 14:35:08;;;;;;;45.85;27.25;;;;;;;;;;10487078;27;20074;-63
2021/01/06 14:40:08;;;;;;;48.72;30.98;;;;;;;;;;10486958;27;20100;-62
2021/01/06 14:45:12;;;;;;;38.75;23.95;;;;;;;;;;10488168;27;20415;-63
2021/01/06 14:50:22;;;;;;;33.95;22.45;;;;;;;;;;10487767;27;20049;-63
2021/01/06 14:55:23;;;;;;;68.90;51.30;;;;;;;;;;10487486;27;20078;-63
2021/01/06 15:00:40;;;;;;;126.70;77.68;;;;;;;;;;10487019;27;20043;-62
2021/01/06 15:05:39;;;;;;;28.42;21.33;;;;;;;;;;10486170;27;20046;-63
2021/01/06 15:10:38;;;;;;;55.85;35.60;;;;;;;;;;10486634;27;20046;-63
2021/01/06 15:15:38;;;;;;;45.13;29.05;;;;;;;;;;10485479;27;20085;-62
2021/01/06 15:20:38;;;;;;;22.45;14.75;;;;;;;;;;10485696;27;20051;-63
2021/01/06 15:25:40;;;;;;;20.20;14.32;;;;;;;;;;10484641;27;20062;-62
2021/01/06 15:30:40;;;;;;;38.75;27.02;;;;;;;;;;10484908;27;20042;-62
2021/01/06 15:35:39;;;;;;;87.55;56.03;;;;;;;;;;10484613;27;20473;-62
2021/01/06 15:40:38;;;;;;;61.08;41.95;;;;;;;;;;10483961;27;20376;-62
2021/01/06 15:45:36;;;;;;;70.47;46.72;;;;;;;;;;10484824;27;20502;-62
2021/01/06 15:50:33;;;;;;;40.20;27.23;;;;;;;;;;10485104;27;20058;-62
2021/01/06 15:55:30;;;;;;;22.58;16.05;;;;;;;;;;10484115;27;20075;-63
2021/01/06 16:00:29;;;;;;;31.15;22.50;;;;;;;;;;10434233;27;20477;-62
2021/01/06 16:05:28;;;;;;;39.15;29.15;;;;;;;;;;10414310;27;20082;-61
2021/01/06 16:10:29;;;;;;;18.77;14.23;;;;;;;;;;10399042;27;20081;-61
2021/01/06 16:15:30;;;;;;;29.67;17.27;;;;;;;;;;10414093;27;20078;-62
2021/01/06 16:20:30;;;;;;;29.88;19.95;;;;;;;;;;10409869;27;20078;-62
2021/01/06 16:25:30;;;;;;;32.97;21.83;;;;;;;;;;10410456;27;20071;-61
2021/01/06 16:30:34;;;;;;;33.20;23.60;;;;;;;;;;10403198;27;20063;-62
2021/01/06 16:35:33;;;;;;;68.53;51.83;;;;;;;;;;10394491;28;20078;-64
2021/01/06 16:40:31;;;;;;;36.30;26.58;;;;;;;;;;10377487;27;20036;-63
2021/01/06 16:45:29;;;;;;;53.50;37.00;;;;;;;;;;10438796;27;20039;-62
2021/01/06 16:50:28;;;;;;;91.95;68.75;;;;;;;;;;10441045;27;20092;-62
2021/01/06 16:55:29;;;;;;;25.90;19.45;;;;;;;;;;10440655;27;20082;-62
2021/01/06 17:00:27;;;;;;;54.63;42.78;;;;;;;;;;10440507;28;20508;-61
2021/01/06 17:05:26;;;;;;;106.55;78.53;;;;;;;;;;10440230;28;20052;-62
2021/01/06 17:10:25;;;;;;;73.32;61.35;;;;;;;;;;10440146;28;20043;-62
2021/01/06 17:15:25;;;;;;;35.05;21.42;;;;;;;;;;10440564;28;20071;-61
2021/01/06 17:20:24;;;;;;;45.33;31.95;;;;;;;;;;10446930;27;20112;-61
2021/01/06 17:25:21;;;;;;;38.53;27.08;;;;;;;;;;10458774;27;20074;-60
2021/01/06 17:30:21;;;;;;;23.90;16.42;;;;;;;;;;10480740;27;20051;-61
2021/01/06 17:35:24;;;;;;;25.55;15.15;;;;;;;;;;10460327;27;20058;-62
2021/01/06 17:40:23;;;;;;;31.05;20.55;;;;;;;;;;10479974;27;20079;-62
2021/01/06 17:45:20;;;;;;;16.17;10.43;;;;;;;;;;10480152;27;20105;-62
2021/01/06 17:50:19;;;;;;;16.23;9.77;;;;;;;;;;10486506;27;20062;-61
2021/01/06 17:55:16;;;;;;;25.80;15.82;;;;;;;;;;10487797;27;20104;-62
2021/01/06 18:00:17;;;;;;;19.17;12.95;;;;;;;;;;10486294;27;20455;-61
2021/01/06 18:05:16;;;;;;;84.22;52.67;;;;;;;;;;10487387;27;20468;-61
2021/01/06 18:10:15;;;;;;;55.08;37.15;;;;;;;;;;10486965;27;20078;-62
2021/01/06 18:15:20;;;;;;;15.82;11.90;;;;;;;;;;10486324;27;20093;-62
2021/01/06 18:20:17;;;;;;;;;;;;;;;;;;10482855;27;20077;-63
2021/01/06 18:25:31;;;;;;;21.60;13.75;;;;;;;;;;10482041;27;19970;-62
2021/01/06 18:30:29;;;;;;;34.88;22.02;;;;;;;;;;10468529;27;20078;-61
2021/01/06 18:35:27;;;;;;;54.15;30.55;;;;;;;;;;10475227;27;20089;-61
2021/01/06 18:40:30;;;;;;;21.48;14.00;;;;;;;;;;10467673;27;20067;-62
2021/01/06 18:45:33;;;;;;;24.40;16.35;;;;;;;;;;10477676;27;20062;-62
2021/01/06 18:50:31;;;;;;;27.75;13.38;;;;;;;;;;10480006;27;20062;-62
2021/01/06 18:55:29;;;;;;;15.60;9.60;;;;;;;;;;10483273;27;20455;-62
2021/01/06 19:00:27;;;;;;;12.65;9.40;;;;;;;;;;10475750;27;20054;-62
2021/01/06 19:05:25;;;;;;;11.77;9.10;;;;;;;;;;10474170;27;20077;-62
2021/01/06 19:10:25;;;;;;;13.77;9.77;;;;;;;;;;10479251;27;20085;-62
2021/01/06 19:15:25;;;;;;;6.72;4.93;;;;;;;;;;10449476;27;20066;-62
2021/01/06 19:20:27;;;;;;;5.60;3.85;;;;;;;;;;10466170;27;20109;-62
2021/01/06 19:25:25;;;;;;;6.82;4.82;;;;;;;;;;10470455;27;20078;-62
2021/01/06 19:30:23;;;;;;;9.05;7.32;;;;;;;;;;10475722;27;20069;-60
2021/01/06 19:35:23;;;;;;;8.68;7.65;;;;;;;;;;10465712;27;20109;-62
2021/01/06 19:40:21;;;;;;;16.23;10.27;;;;;;;;;;10462523;27;20082;-62
2021/01/06 19:45:21;;;;;;;19.20;11.20;;;;;;;;;;10471625;27;20085;-62
2021/01/06 19:50:19;;;;;;;7.82;5.05;;;;;;;;;;10472417;27;20481;-61
2021/01/06 19:55:21;;;;;;;12.13;9.13;;;;;;;;;;10472578;27;20128;-61
2021/01/06 20:00:32;;;;;;;13.15;8.68;;;;;;;;;;10464532;27;20067;-61
2021/01/06 20:05:29;;;;;;;25.85;15.98;;;;;;;;;;10471411;27;20066;-62
2021/01/06 20:10:29;;;;;;;13.98;8.73;;;;;;;;;;10480782;27;20066;-63
2021/01/06 20:15:28;;;;;;;9.52;6.93;;;;;;;;;;10472363;27;20067;-62
2021/01/06 20:20:26;;;;;;;9.18;7.32;;;;;;;;;;10475305;27;20077;-62
2021/01/06 20:25:23;;;;;;;17.15;11.93;;;;;;;;;;10480009;27;20088;-63
2021/01/06 20:30:21;;;;;;;18.23;10.98;;;;;;;;;;10475246;27;20066;-62
2021/01/06 20:35:20;;;;;;;22.85;16.35;;;;;;;;;;10474015;27;20070;-62
2021/01/06 20:40:17;;;;;;;10.82;9.60;;;;;;;;;;10481562;27;20058;-62
2021/01/06 20:45:16;;;;;;;23.30;12.13;;;;;;;;;;10480483;27;20213;-62
2021/01/06 20:50:16;;;;;;;33.05;21.25;;;;;;;;;;10475171;27;20089;-63
2021/01/06 20:55:14;;;;;;;14.95;9.00;;;;;;;;;;10478634;27;20078;-63
2021/01/06 21:00:13;;;;;;;18.98;11.25;;;;;;;;;;10478468;27;20542;-63
2021/01/06 21:05:11;;;;;;;7.10;5.10;;;;;;;;;;10481303;27;20042;-63
2021/01/06 21:10:09;;;;;;;12.20;7.30;;;;;;;;;;10480292;27;20039;-62
2021/01/06 21:15:07;;;;;;;7.90;5.80;;;;;;;;;;10480410;27;20070;-61
2021/01/06 21:20:06;;;;;;;8.52;5.88;;;;;;;;;;10479763;27;20070;-62
2021/01/06 21:25:04;;;;;;;9.25;5.88;;;;;;;;;;10484093;27;20077;-63
2021/01/06 21:30:05;;;;;;;21.00;10.30;;;;;;;;;;10489038;27;20035;-62
2021/01/06 21:35:02;;;;;;;20.08;11.05;;;;;;;;;;10487240;27;20428;-64
2021/01/06 21:39:59;;;;;;;18.98;9.65;;;;;;;;;;10488768;27;20054;-63
2021/01/06 21:44:57;;;;;;;22.63;11.68;;;;;;;;;;10469220;27;20067;-62
2021/01/06 21:49:58;;;;;;;30.15;16.65;;;;;;;;;;10457374;27;20058;-63
2021/01/06 21:54:55;;;;;;;20.42;11.20;;;;;;;;;;10467130;27;20077;-62
2021/01/06 21:59:52;;;;;;;21.20;10.00;;;;;;;;;;10464880;27;20062;-62
2021/01/06 22:04:50;;;;;;;15.55;9.10;;;;;;;;;;10462951;27;20063;-62
2021/01/06 22:09:51;;;;;;;13.38;8.05;;;;;;;;;;10464254;27;20529;-62
2021/01/06 22:14:48;;;;;;;16.33;10.07;;;;;;;;;;10464539;27;20059;-63
2021/01/06 22:19:45;;;;;;;23.00;10.20;;;;;;;;;;10459383;27;20067;-62
2021/01/06 22:24:42;;;;;;;15.20;8.23;;;;;;;;;;10463472;27;20043;-62
2021/01/06 22:29:41;;;;;;;24.08;10.35;;;;;;;;;;10464082;27;20063;-63
2021/01/06 22:34:39;;;;;;;15.05;8.60;;;;;;;;;;10463462;27;20526;-62
2021/01/06 22:39:37;;;;;;;27.02;10.75;;;;;;;;;;10463412;27;20066;-62
2021/01/06 22:44:34;;;;;;;23.45;10.05;;;;;;;;;;10463665;27;20101;-62
2021/01/06 22:49:32;;;;;;;22.35;10.75;;;;;;;;;;10459186;27;20518;-62
2021/01/06 22:54:30;;;;;;;17.17;8.52;;;;;;;;;;10458281;27;20077;-62
2021/01/06 22:59:27;;;;;;;18.15;9.13;;;;;;;;;;10457602;27;20031;-63
2021/01/06 23:04:24;;;;;;;23.00;10.43;;;;;;;;;;10460410;27;20468;-62
2021/01/06 23:09:22;;;;;;;18.75;8.93;;;;;;;;;;10463166;27;20062;-63
2021/01/06 23:14:20;;;;;;;17.77;8.45;;;;;;;;;;10462388;27;20078;-61
2021/01/06 23:19:17;;;;;;;15.95;7.32;;;;;;;;;;10461702;27;20082;-62
2021/01/06 23:24:15;;;;;;;15.65;8.60;;;;;;;;;;10459319;27;20054;-63
2021/01/06 23:29:13;;;;;;;22.80;11.05;;;;;;;;;;10459204;27;20055;-62
2021/01/06 23:34:10;;;;;;;26.85;11.38;;;;;;;;;;10461072;27;20089;-62
2021/01/06 23:39:08;;;;;;;7.93;5.70;;;;;;;;;;10461645;27;20068;-62
2021/01/06 23:44:05;;;;;;;19.02;9.38;;;;;;;;;;10454708;27;20086;-63
2021/01/06 23:49:04;;;;;;;9.70;5.40;;;;;;;;;;10460236;27;20050;-60
2021/01/06 23:54:02;;;;;;;9.75;5.10;;;;;;;;;;10460816;27;20448;-62
2021/01/06 23:58:59;;;;;;;10.82;8.13;;;;;;;;;;10459553;27;20086;-62
